Rona II — MPKR2 — position and weather

sailwx.info

Track history (hours):
 
Tides and Currents Weather Stations Pressure Air Temp Water Temp Dewpoint Dewpoint Depression Visibility Wind Speed Wind Dir Waves Ship Positions

Rona II

Last reported at 2015-Jul-01 15:27 UTC. Time now 2015-Jul-02 00:54 UTC.
Position N 54°42' W 005°38'.

Length 22 m.

Type: Sailing vessel. MMSI: 232714000.

Date/timePositionNaut miles runAvg speedWind from/ knotsBaromVisibWave heightAir tempDewpointWater temp
2015-Jul-01 15:27N 54°42' W 005°38'5 5.3
2015-Jul-01 14:33N 54°39' W 005°31'  
2015-Jun-29 07:09N 52°22' W 006°10'5 8.2
2015-Jun-29 06:31N 52°17' W 006°13'74 6.1
2015-Jun-28 18:18N 51°46' W 008°02'6 8.2
2015-Jun-28 17:33N 51°46' W 008°12'6 5.8
2015-Jun-28 16:33N 51°51' W 008°18'0 0.2
2015-Jun-28 15:33N 51°51' W 008°18'0 0.0
2015-Jun-28 14:33N 51°51' W 008°18'0 0.3
2015-Jun-28 13:34N 51°51' W 008°18'0 0.0
2015-Jun-28 03:04N 51°51' W 008°18'0 0.0
2015-Jun-28 02:31N 51°51' W 008°18'0 0.0
2015-Jun-28 01:31N 51°51' W 008°18'0 0.0
2015-Jun-28 00:31N 51°51' W 008°18'0 0.0
2015-Jun-27 23:31N 51°51' W 008°18'0 0.0
2015-Jun-27 22:31N 51°51' W 008°18'0 0.0
2015-Jun-27 21:31N 51°51' W 008°18'0 0.0
2015-Jun-27 20:31N 51°51' W 008°18'0 0.0
2015-Jun-27 19:31N 51°51' W 008°18'0 0.0
2015-Jun-27 18:31N 51°51' W 008°18'0 0.0
2015-Jun-27 17:28N 51°51' W 008°18'0 0.0
2015-Jun-27 16:31N 51°51' W 008°18'0 0.0
2015-Jun-27 15:31N 51°51' W 008°18'0 0.0
2015-Jun-27 14:31N 51°51' W 008°18'1 1.3
2015-Jun-27 13:33N 51°51' W 008°16'1 0.1
2015-Jun-26 23:06N 51°51' W 008°18'1 2.1
2015-Jun-26 22:27N 51°50' W 008°16'6 6.6
2015-Jun-26 21:33N 51°44' W 008°14'9 8.6
2015-Jun-26 20:33N 51°37' W 008°08'  
Track history (hours):
 
Tides and Currents Weather Stations Pressure Air Temp Water Temp Dewpoint Dewpoint Depression Visibility Wind Speed Wind Dir Waves Ship Positions

Rona II

Last reported at 2015-Jul-01 15:27 UTC. Time now 2015-Jul-02 00:54 UTC.
Position N 54°42' W 005°38'.

Length 22 m.

Type: Sailing vessel. MMSI: 232714000.

Date/timePositionNaut miles runAvg speedWind from/ knotsBaromVisibWave heightAir tempDewpointWater temp
2015-Jul-01 15:27N 54°42' W 005°38'5 5.3
2015-Jul-01 14:33N 54°39' W 005°31'  
2015-Jun-29 07:09N 52°22' W 006°10'5 8.2
2015-Jun-29 06:31N 52°17' W 006°13'74 6.1
2015-Jun-28 18:18N 51°46' W 008°02'6 8.2
2015-Jun-28 17:33N 51°46' W 008°12'6 5.8
2015-Jun-28 16:33N 51°51' W 008°18'0 0.2
2015-Jun-28 15:33N 51°51' W 008°18'0 0.0
2015-Jun-28 14:33N 51°51' W 008°18'0 0.3
2015-Jun-28 13:34N 51°51' W 008°18'0 0.0
2015-Jun-28 03:04N 51°51' W 008°18'0 0.0
2015-Jun-28 02:31N 51°51' W 008°18'0 0.0
2015-Jun-28 01:31N 51°51' W 008°18'0 0.0
2015-Jun-28 00:31N 51°51' W 008°18'0 0.0
2015-Jun-27 23:31N 51°51' W 008°18'0 0.0
2015-Jun-27 22:31N 51°51' W 008°18'0 0.0
2015-Jun-27 21:31N 51°51' W 008°18'0 0.0
2015-Jun-27 20:31N 51°51' W 008°18'0 0.0
2015-Jun-27 19:31N 51°51' W 008°18'0 0.0
2015-Jun-27 18:31N 51°51' W 008°18'0 0.0
2015-Jun-27 17:28N 51°51' W 008°18'0 0.0
2015-Jun-27 16:31N 51°51' W 008°18'0 0.0
2015-Jun-27 15:31N 51°51' W 008°18'0 0.0
2015-Jun-27 14:31N 51°51' W 008°18'1 1.3
2015-Jun-27 13:33N 51°51' W 008°16'1 0.1
2015-Jun-26 23:06N 51°51' W 008°18'1 2.1
2015-Jun-26 22:27N 51°50' W 008°16'6 6.6
2015-Jun-26 21:33N 51°44' W 008°14'9 8.6
2015-Jun-26 20:33N 51°37' W 008°08'  

Dump ship's entire track history